sensor_id;sensor_type;location;lat;lon;timestamp;temperature;humidity
17632;DHT22;8934;51.194;17.150;2023-06-04T00:01:29;6.40;99.90
17632;DHT22;8934;51.194;17.150;2023-06-04T00:04:17;6.40;99.90
17632;DHT22;8934;51.194;17.150;2023-06-04T00:07:05;6.30;99.90
17632;DHT22;8934;51.194;17.150;2023-06-04T00:09:53;6.30;99.90
17632;DHT22;8934;51.194;17.150;2023-06-04T00:12:41;6.30;99.90
17632;DHT22;8934;51.194;17.150;2023-06-04T00:15:30;6.30;99.90
17632;DHT22;8934;51.194;17.150;2023-06-04T00:18:17;6.30;99.90
17632;DHT22;8934;51.194;17.150;2023-06-04T00:21:05;6.30;99.90
17632;DHT22;8934;51.194;17.150;2023-06-04T00:23:53;6.20;99.90
17632;DHT22;8934;51.194;17.150;2023-06-04T00:26:41;6.20;99.90
17632;DHT22;8934;51.194;17.150;2023-06-04T00:29:29;6.30;99.90
17632;DHT22;8934;51.194;17.150;2023-06-04T00:32:18;6.30;99.90
17632;DHT22;8934;51.194;17.150;2023-06-04T00:35:06;6.20;99.90
17632;DHT22;8934;51.194;17.150;2023-06-04T00:37:55;6.20;99.90
17632;DHT22;8934;51.194;17.150;2023-06-04T00:40:43;6.20;99.90
17632;DHT22;8934;51.194;17.150;2023-06-04T00:43:30;6.10;99.90
17632;DHT22;8934;51.194;17.150;2023-06-04T00:46:19;6.10;99.90
17632;DHT22;8934;51.194;17.150;2023-06-04T00:49:09;6.10;99.90
17632;DHT22;8934;51.194;17.150;2023-06-04T00:51:59;6.10;99.90
17632;DHT22;8934;51.194;17.150;2023-06-04T00:54:47;6.10;99.90
17632;DHT22;8934;51.194;17.150;2023-06-04T00:57:35;6.00;99.90
17632;DHT22;8934;51.194;17.150;2023-06-04T01:00:23;6.00;99.90
17632;DHT22;8934;51.194;17.150;2023-06-04T01:03:14;6.00;99.90
17632;DHT22;8934;51.194;17.150;2023-06-04T01:06:10;6.00;99.90
17632;DHT22;8934;51.194;17.150;2023-06-04T01:09:00;5.90;99.90
17632;DHT22;8934;51.194;17.150;2023-06-04T01:11:48;5.90;99.90
17632;DHT22;8934;51.194;17.150;2023-06-04T01:14:35;5.90;99.90
17632;DHT22;8934;51.194;17.150;2023-06-04T01:17:26;5.80;99.90
17632;DHT22;8934;51.194;17.150;2023-06-04T01:20:28;5.80;99.90
17632;DHT22;8934;51.194;17.150;2023-06-04T01:23:34;5.80;99.90
17632;DHT22;8934;51.194;17.150;2023-06-04T01:26:26;5.80;99.90
17632;DHT22;8934;51.194;17.150;2023-06-04T01:29:14;5.80;99.90
17632;DHT22;8934;51.194;17.150;2023-06-04T01:32:02;5.80;99.90
17632;DHT22;8934;51.194;17.150;2023-06-04T01:34:50;5.70;99.90
17632;DHT22;8934;51.194;17.150;2023-06-04T01:37:38;5.70;99.90
17632;DHT22;8934;51.194;17.150;2023-06-04T01:40:27;5.70;99.90
17632;DHT22;8934;51.194;17.150;2023-06-04T01:43:15;5.70;99.90
17632;DHT22;8934;51.194;17.150;2023-06-04T01:46:03;5.70;99.90
17632;DHT22;8934;51.194;17.150;2023-06-04T01:48:51;5.70;99.90
17632;DHT22;8934;51.194;17.150;2023-06-04T01:51:38;5.60;99.90
17632;DHT22;8934;51.194;17.150;2023-06-04T01:54:26;5.60;99.90
17632;DHT22;8934;51.194;17.150;2023-06-04T01:57:17;5.60;99.90
17632;DHT22;8934;51.194;17.150;2023-06-04T02:00:06;5.50;99.90
17632;DHT22;8934;51.194;17.150;2023-06-04T02:02:58;5.50;99.90
17632;DHT22;8934;51.194;17.150;2023-06-04T02:05:46;5.40;99.90
17632;DHT22;8934;51.194;17.150;2023-06-04T02:08:36;5.40;99.90
17632;DHT22;8934;51.194;17.150;2023-06-04T02:11:25;5.40;99.90
17632;DHT22;8934;51.194;17.150;2023-06-04T02:14:14;5.40;99.90
17632;DHT22;8934;51.194;17.150;2023-06-04T02:17:01;5.30;99.90
17632;DHT22;8934;51.194;17.150;2023-06-04T02:19:50;5.30;99.90
17632;DHT22;8934;51.194;17.150;2023-06-04T02:22:38;5.30;99.90
17632;DHT22;8934;51.194;17.150;2023-06-04T02:25:26;5.20;99.90
17632;DHT22;8934;51.194;17.150;2023-06-04T02:28:14;5.20;99.90
17632;DHT22;8934;51.194;17.150;2023-06-04T02:31:03;5.10;99.90
17632;DHT22;8934;51.194;17.150;2023-06-04T02:33:51;5.10;99.90
17632;DHT22;8934;51.194;17.150;2023-06-04T02:36:39;5.00;99.90
17632;DHT22;8934;51.194;17.150;2023-06-04T02:39:26;5.00;99.90
17632;DHT22;8934;51.194;17.150;2023-06-04T02:42:14;5.00;99.90
17632;DHT22;8934;51.194;17.150;2023-06-04T02:45:02;4.90;99.90
17632;DHT22;8934;51.194;17.150;2023-06-04T02:47:51;4.90;99.90
17632;DHT22;8934;51.194;17.150;2023-06-04T02:50:38;4.90;99.90
17632;DHT22;8934;51.194;17.150;2023-06-04T02:53:28;4.90;99.90
17632;DHT22;8934;51.194;17.150;2023-06-04T02:56:16;4.80;99.90
17632;DHT22;8934;51.194;17.150;2023-06-04T02:59:04;4.80;99.90
17632;DHT22;8934;51.194;17.150;2023-06-04T03:01:52;4.80;99.90
17632;DHT22;8934;51.194;17.150;2023-06-04T03:04:41;4.80;99.90
17632;DHT22;8934;51.194;17.150;2023-06-04T03:07:30;5.00;99.90
17632;DHT22;8934;51.194;17.150;2023-06-04T03:10:18;5.20;99.90
17632;DHT22;8934;51.194;17.150;2023-06-04T03:13:06;5.30;99.90
17632;DHT22;8934;51.194;17.150;2023-06-04T03:15:53;5.40;99.90
17632;DHT22;8934;51.194;17.150;2023-06-04T03:18:42;5.30;99.90
17632;DHT22;8934;51.194;17.150;2023-06-04T03:21:31;5.20;99.90
17632;DHT22;8934;51.194;17.150;2023-06-04T03:24:20;5.20;99.90
17632;DHT22;8934;51.194;17.150;2023-06-04T03:27:08;5.10;99.90
17632;DHT22;8934;51.194;17.150;2023-06-04T03:29:59;5.20;99.90
17632;DHT22;8934;51.194;17.150;2023-06-04T03:32:54;5.10;99.90
17632;DHT22;8934;51.194;17.150;2023-06-04T03:35:42;5.10;99.90
17632;DHT22;8934;51.194;17.150;2023-06-04T03:38:31;5.20;99.90
17632;DHT22;8934;51.194;17.150;2023-06-04T03:41:19;5.20;99.90
17632;DHT22;8934;51.194;17.150;2023-06-04T03:44:07;5.30;99.90
17632;DHT22;8934;51.194;17.150;2023-06-04T03:46:55;5.40;99.90
17632;DHT22;8934;51.194;17.150;2023-06-04T03:49:43;5.40;99.90
17632;DHT22;8934;51.194;17.150;2023-06-04T03:52:30;5.50;99.90
17632;DHT22;8934;51.194;17.150;2023-06-04T03:55:21;5.60;99.90
17632;DHT22;8934;51.194;17.150;2023-06-04T03:58:09;5.70;99.90
17632;DHT22;8934;51.194;17.150;2023-06-04T04:01:02;5.80;99.90
17632;DHT22;8934;51.194;17.150;2023-06-04T04:03:51;5.90;99.90
17632;DHT22;8934;51.194;17.150;2023-06-04T04:06:39;6.10;99.90
17632;DHT22;8934;51.194;17.150;2023-06-04T04:09:28;6.20;99.90
17632;DHT22;8934;51.194;17.150;2023-06-04T04:12:17;6.40;99.90
17632;DHT22;8934;51.194;17.150;2023-06-04T04:15:05;6.50;99.90
17632;DHT22;8934;51.194;17.150;2023-06-04T04:17:55;6.70;99.90
17632;DHT22;8934;51.194;17.150;2023-06-04T04:20:43;6.90;99.90
17632;DHT22;8934;51.194;17.150;2023-06-04T04:23:32;7.10;99.90
17632;DHT22;8934;51.194;17.150;2023-06-04T04:26:20;7.20;99.90
17632;DHT22;8934;51.194;17.150;2023-06-04T04:29:14;7.40;99.90
17632;DHT22;8934;51.194;17.150;2023-06-04T04:32:02;7.60;99.90
17632;DHT22;8934;51.194;17.150;2023-06-04T04:34:57;7.80;99.90
17632;DHT22;8934;51.194;17.150;2023-06-04T04:37:52;7.90;99.90
17632;DHT22;8934;51.194;17.150;2023-06-04T04:40:41;8.10;99.90
17632;DHT22;8934;51.194;17.150;2023-06-04T04:43:34;8.30;99.90
17632;DHT22;8934;51.194;17.150;2023-06-04T04:46:37;8.50;99.90
17632;DHT22;8934;51.194;17.150;2023-06-04T04:49:24;8.60;99.90
17632;DHT22;8934;51.194;17.150;2023-06-04T04:52:12;8.80;99.90
17632;DHT22;8934;51.194;17.150;2023-06-04T04:55:00;8.90;99.90
17632;DHT22;8934;51.194;17.150;2023-06-04T04:57:51;9.10;99.90
17632;DHT22;8934;51.194;17.150;2023-06-04T05:00:40;9.30;99.90
17632;DHT22;8934;51.194;17.150;2023-06-04T05:03:29;9.50;99.90
17632;DHT22;8934;51.194;17.150;2023-06-04T05:06:16;9.60;99.90
17632;DHT22;8934;51.194;17.150;2023-06-04T05:09:05;9.80;99.90
17632;DHT22;8934;51.194;17.150;2023-06-04T05:11:54;10.00;99.90
17632;DHT22;8934;51.194;17.150;2023-06-04T05:14:42;10.20;99.90
17632;DHT22;8934;51.194;17.150;2023-06-04T05:17:32;10.30;99.90
17632;DHT22;8934;51.194;17.150;2023-06-04T05:20:26;10.50;99.90
17632;DHT22;8934;51.194;17.150;2023-06-04T05:23:14;10.60;99.90
17632;DHT22;8934;51.194;17.150;2023-06-04T05:26:04;10.70;99.90
17632;DHT22;8934;51.194;17.150;2023-06-04T05:28:52;10.90;99.90
17632;DHT22;8934;51.194;17.150;2023-06-04T05:31:44;11.00;99.90
17632;DHT22;8934;51.194;17.150;2023-06-04T05:34:35;11.20;99.90
17632;DHT22;8934;51.194;17.150;2023-06-04T05:37:25;11.30;99.90
17632;DHT22;8934;51.194;17.150;2023-06-04T05:40:15;11.40;99.90
17632;DHT22;8934;51.194;17.150;2023-06-04T05:43:03;11.50;99.90
17632;DHT22;8934;51.194;17.150;2023-06-04T05:45:51;11.60;99.90
17632;DHT22;8934;51.194;17.150;2023-06-04T05:48:39;11.80;99.90
17632;DHT22;8934;51.194;17.150;2023-06-04T05:51:27;11.90;99.90
17632;DHT22;8934;51.194;17.150;2023-06-04T05:54:16;12.10;99.90
17632;DHT22;8934;51.194;17.150;2023-06-04T05:57:04;12.30;99.90
17632;DHT22;8934;51.194;17.150;2023-06-04T05:59:53;12.40;99.90
17632;DHT22;8934;51.194;17.150;2023-06-04T06:02:41;12.60;99.90
17632;DHT22;8934;51.194;17.150;2023-06-04T06:05:43;12.70;99.90
17632;DHT22;8934;51.194;17.150;2023-06-04T06:08:30;13.00;99.90
17632;DHT22;8934;51.194;17.150;2023-06-04T06:11:20;13.10;99.90
17632;DHT22;8934;51.194;17.150;2023-06-04T06:14:08;13.30;99.90
17632;DHT22;8934;51.194;17.150;2023-06-04T06:16:56;13.40;99.90
17632;DHT22;8934;51.194;17.150;2023-06-04T06:19:44;13.60;99.90
17632;DHT22;8934;51.194;17.150;2023-06-04T06:22:32;13.80;99.90
17632;DHT22;8934;51.194;17.150;2023-06-04T06:25:21;13.90;99.90
17632;DHT22;8934;51.194;17.150;2023-06-04T06:28:19;14.00;99.90
17632;DHT22;8934;51.194;17.150;2023-06-04T06:31:07;14.10;99.90
17632;DHT22;8934;51.194;17.150;2023-06-04T06:33:55;14.20;99.90
17632;DHT22;8934;51.194;17.150;2023-06-04T06:36:43;14.40;99.90
17632;DHT22;8934;51.194;17.150;2023-06-04T06:39:31;14.50;99.90
17632;DHT22;8934;51.194;17.150;2023-06-04T06:42:21;14.60;99.90
17632;DHT22;8934;51.194;17.150;2023-06-04T06:45:11;14.80;99.90
17632;DHT22;8934;51.194;17.150;2023-06-04T06:47:59;15.00;99.90
17632;DHT22;8934;51.194;17.150;2023-06-04T06:50:46;15.10;99.90
17632;DHT22;8934;51.194;17.150;2023-06-04T06:53:34;15.30;99.90
17632;DHT22;8934;51.194;17.150;2023-06-04T06:56:21;15.50;99.90
17632;DHT22;8934;51.194;17.150;2023-06-04T06:59:09;15.60;99.90
17632;DHT22;8934;51.194;17.150;2023-06-04T07:01:58;15.70;99.90
17632;DHT22;8934;51.194;17.150;2023-06-04T07:04:46;15.90;99.90
17632;DHT22;8934;51.194;17.150;2023-06-04T07:07:33;16.10;99.90
17632;DHT22;8934;51.194;17.150;2023-06-04T07:10:21;16.30;99.90
17632;DHT22;8934;51.194;17.150;2023-06-04T07:13:09;16.40;99.90
17632;DHT22;8934;51.194;17.150;2023-06-04T07:15:56;16.60;99.90
17632;DHT22;8934;51.194;17.150;2023-06-04T07:18:47;16.80;99.90
17632;DHT22;8934;51.194;17.150;2023-06-04T07:21:36;17.00;99.90
17632;DHT22;8934;51.194;17.150;2023-06-04T07:24:23;17.20;99.90
17632;DHT22;8934;51.194;17.150;2023-06-04T07:27:11;17.40;99.90
17632;DHT22;8934;51.194;17.150;2023-06-04T07:29:59;17.50;99.90
17632;DHT22;8934;51.194;17.150;2023-06-04T07:32:47;17.70;99.90
17632;DHT22;8934;51.194;17.150;2023-06-04T07:35:37;17.90;99.90
17632;DHT22;8934;51.194;17.150;2023-06-04T07:38:24;18.10;99.90
17632;DHT22;8934;51.194;17.150;2023-06-04T07:41:12;18.20;99.90
17632;DHT22;8934;51.194;17.150;2023-06-04T07:43:59;18.40;99.90
17632;DHT22;8934;51.194;17.150;2023-06-04T07:46:47;18.70;99.90
17632;DHT22;8934;51.194;17.150;2023-06-04T07:49:35;18.80;99.90
17632;DHT22;8934;51.194;17.150;2023-06-04T07:52:37;19.00;99.90
17632;DHT22;8934;51.194;17.150;2023-06-04T07:55:25;19.20;99.90
17632;DHT22;8934;51.194;17.150;2023-06-04T07:58:13;19.30;99.90
17632;DHT22;8934;51.194;17.150;2023-06-04T08:01:01;19.60;99.90
17632;DHT22;8934;51.194;17.150;2023-06-04T08:03:49;19.80;99.90
17632;DHT22;8934;51.194;17.150;2023-06-04T08:06:37;19.90;99.90
17632;DHT22;8934;51.194;17.150;2023-06-04T08:09:27;20.10;99.70
17632;DHT22;8934;51.194;17.150;2023-06-04T08:12:15;20.30;99.90
17632;DHT22;8934;51.194;17.150;2023-06-04T08:15:04;20.40;99.90
17632;DHT22;8934;51.194;17.150;2023-06-04T08:17:52;20.60;99.90
17632;DHT22;8934;51.194;17.150;2023-06-04T08:20:40;20.60;99.90
17632;DHT22;8934;51.194;17.150;2023-06-04T08:23:27;20.80;99.30
17632;DHT22;8934;51.194;17.150;2023-06-04T08:26:16;21.00;98.50
17632;DHT22;8934;51.194;17.150;2023-06-04T08:29:05;21.20;93.60
17632;DHT22;8934;51.194;17.150;2023-06-04T08:31:53;21.40;94.70
17632;DHT22;8934;51.194;17.150;2023-06-04T08:34:40;21.60;94.80
17632;DHT22;8934;51.194;17.150;2023-06-04T08:37:28;21.70;95.10
17632;DHT22;8934;51.194;17.150;2023-06-04T08:40:16;21.80;94.60
17632;DHT22;8934;51.194;17.150;2023-06-04T08:43:05;21.80;91.40
17632;DHT22;8934;51.194;17.150;2023-06-04T08:45:59;21.60;90.40
17632;DHT22;8934;51.194;17.150;2023-06-04T08:48:49;21.80;90.80
17632;DHT22;8934;51.194;17.150;2023-06-04T08:51:37;22.00;91.30
17632;DHT22;8934;51.194;17.150;2023-06-04T08:54:26;22.30;90.00
17632;DHT22;8934;51.194;17.150;2023-06-04T08:57:15;22.50;88.20
17632;DHT22;8934;51.194;17.150;2023-06-04T09:00:06;22.70;90.90
17632;DHT22;8934;51.194;17.150;2023-06-04T09:02:55;22.80;90.00
17632;DHT22;8934;51.194;17.150;2023-06-04T09:05:44;22.80;90.60
17632;DHT22;8934;51.194;17.150;2023-06-04T09:08:37;22.90;85.90
17632;DHT22;8934;51.194;17.150;2023-06-04T09:11:31;22.90;89.30
17632;DHT22;8934;51.194;17.150;2023-06-04T09:14:21;23.00;87.10
17632;DHT22;8934;51.194;17.150;2023-06-04T09:17:10;23.20;87.20
17632;DHT22;8934;51.194;17.150;2023-06-04T09:19:58;23.20;87.50
17632;DHT22;8934;51.194;17.150;2023-06-04T09:22:45;23.40;88.00
17632;DHT22;8934;51.194;17.150;2023-06-04T09:25:33;23.40;83.60
17632;DHT22;8934;51.194;17.150;2023-06-04T09:28:20;23.40;82.60
17632;DHT22;8934;51.194;17.150;2023-06-04T09:31:09;23.60;81.70
17632;DHT22;8934;51.194;17.150;2023-06-04T09:33:58;23.90;85.10
17632;DHT22;8934;51.194;17.150;2023-06-04T09:36:46;24.20;81.90
17632;DHT22;8934;51.194;17.150;2023-06-04T09:39:33;24.60;77.80
17632;DHT22;8934;51.194;17.150;2023-06-04T09:42:21;24.80;76.90
17632;DHT22;8934;51.194;17.150;2023-06-04T09:45:10;24.80;80.60
17632;DHT22;8934;51.194;17.150;2023-06-04T09:47:59;24.70;80.20
17632;DHT22;8934;51.194;17.150;2023-06-04T09:50:49;24.80;77.50
17632;DHT22;8934;51.194;17.150;2023-06-04T09:53:37;24.90;78.20
17632;DHT22;8934;51.194;17.150;2023-06-04T09:56:24;24.90;77.30
17632;DHT22;8934;51.194;17.150;2023-06-04T09:59:13;24.90;79.20
17632;DHT22;8934;51.194;17.150;2023-06-04T10:02:01;24.90;76.90
17632;DHT22;8934;51.194;17.150;2023-06-04T10:04:53;24.90;76.50
17632;DHT22;8934;51.194;17.150;2023-06-04T10:07:43;25.10;77.80
17632;DHT22;8934;51.194;17.150;2023-06-04T10:10:34;25.50;75.50
17632;DHT22;8934;51.194;17.150;2023-06-04T10:13:26;25.70;75.80
17632;DHT22;8934;51.194;17.150;2023-06-04T10:16:14;25.90;73.10
17632;DHT22;8934;51.194;17.150;2023-06-04T10:19:19;26.20;73.40
17632;DHT22;8934;51.194;17.150;2023-06-04T10:22:07;26.30;74.40
17632;DHT22;8934;51.194;17.150;2023-06-04T10:24:58;26.40;68.80
17632;DHT22;8934;51.194;17.150;2023-06-04T10:27:46;26.30;71.70
17632;DHT22;8934;51.194;17.150;2023-06-04T10:30:33;26.40;71.00
17632;DHT22;8934;51.194;17.150;2023-06-04T10:33:21;26.20;71.70
17632;DHT22;8934;51.194;17.150;2023-06-04T10:36:18;26.30;71.00
17632;DHT22;8934;51.194;17.150;2023-06-04T10:39:06;26.60;70.30
17632;DHT22;8934;51.194;17.150;2023-06-04T10:42:02;26.90;70.20
17632;DHT22;8934;51.194;17.150;2023-06-04T10:44:51;26.90;70.10
17632;DHT22;8934;51.194;17.150;2023-06-04T10:47:42;26.90;73.20
17632;DHT22;8934;51.194;17.150;2023-06-04T10:50:30;26.90;69.20
17632;DHT22;8934;51.194;17.150;2023-06-04T10:53:19;26.90;68.40
17632;DHT22;8934;51.194;17.150;2023-06-04T10:56:06;26.90;70.00
17632;DHT22;8934;51.194;17.150;2023-06-04T10:58:55;26.90;66.90
17632;DHT22;8934;51.194;17.150;2023-06-04T11:01:43;26.60;70.20
17632;DHT22;8934;51.194;17.150;2023-06-04T11:04:31;25.90;71.30
17632;DHT22;8934;51.194;17.150;2023-06-04T11:07:19;26.10;72.80
17632;DHT22;8934;51.194;17.150;2023-06-04T11:10:07;26.50;74.20
17632;DHT22;8934;51.194;17.150;2023-06-04T11:12:56;26.90;70.30
17632;DHT22;8934;51.194;17.150;2023-06-04T11:15:45;26.90;69.00
17632;DHT22;8934;51.194;17.150;2023-06-04T11:18:35;26.70;71.20
17632;DHT22;8934;51.194;17.150;2023-06-04T11:21:23;26.90;72.70
17632;DHT22;8934;51.194;17.150;2023-06-04T11:24:13;27.20;70.90
17632;DHT22;8934;51.194;17.150;2023-06-04T11:27:01;27.10;68.10
17632;DHT22;8934;51.194;17.150;2023-06-04T11:30:03;27.20;67.70
17632;DHT22;8934;51.194;17.150;2023-06-04T11:33:01;27.20;71.40
17632;DHT22;8934;51.194;17.150;2023-06-04T11:35:50;27.30;66.10
17632;DHT22;8934;51.194;17.150;2023-06-04T11:38:39;27.30;65.00
17632;DHT22;8934;51.194;17.150;2023-06-04T11:41:27;27.10;70.10
17632;DHT22;8934;51.194;17.150;2023-06-04T11:44:18;26.90;68.50
17632;DHT22;8934;51.194;17.150;2023-06-04T11:47:08;27.30;67.40
17632;DHT22;8934;51.194;17.150;2023-06-04T11:49:58;27.40;64.70
17632;DHT22;8934;51.194;17.150;2023-06-04T11:52:47;27.40;66.30
17632;DHT22;8934;51.194;17.150;2023-06-04T11:55:35;27.30;68.90
17632;DHT22;8934;51.194;17.150;2023-06-04T11:58:25;27.00;65.20
17632;DHT22;8934;51.194;17.150;2023-06-04T12:01:13;26.70;67.30
17632;DHT22;8934;51.194;17.150;2023-06-04T12:04:11;27.00;67.50
17632;DHT22;8934;51.194;17.150;2023-06-04T12:07:02;27.20;64.70
17632;DHT22;8934;51.194;17.150;2023-06-04T12:09:51;27.30;69.70
17632;DHT22;8934;51.194;17.150;2023-06-04T12:12:38;27.60;69.00
17632;DHT22;8934;51.194;17.150;2023-06-04T12:15:27;28.10;69.10
17632;DHT22;8934;51.194;17.150;2023-06-04T12:18:23;28.50;64.60
17632;DHT22;8934;51.194;17.150;2023-06-04T12:21:17;28.60;60.20
17632;DHT22;8934;51.194;17.150;2023-06-04T12:24:08;28.30;66.60
17632;DHT22;8934;51.194;17.150;2023-06-04T12:27:03;28.30;59.50
17632;DHT22;8934;51.194;17.150;2023-06-04T12:29:59;28.20;61.40
17632;DHT22;8934;51.194;17.150;2023-06-04T12:32:47;28.00;64.60
17632;DHT22;8934;51.194;17.150;2023-06-04T12:35:35;28.00;67.40
17632;DHT22;8934;51.194;17.150;2023-06-04T12:38:22;27.60;59.00
17632;DHT22;8934;51.194;17.150;2023-06-04T12:41:11;27.50;69.40
17632;DHT22;8934;51.194;17.150;2023-06-04T12:44:00;27.70;72.50
17632;DHT22;8934;51.194;17.150;2023-06-04T12:46:48;27.60;59.90
17632;DHT22;8934;51.194;17.150;2023-06-04T12:49:36;27.20;62.60
17632;DHT22;8934;51.194;17.150;2023-06-04T12:52:23;26.90;64.60
17632;DHT22;8934;51.194;17.150;2023-06-04T12:55:11;27.00;62.30
17632;DHT22;8934;51.194;17.150;2023-06-04T12:58:01;26.90;66.40
17632;DHT22;8934;51.194;17.150;2023-06-04T13:00:48;27.10;65.40
17632;DHT22;8934;51.194;17.150;2023-06-04T13:03:37;27.30;68.70
17632;DHT22;8934;51.194;17.150;2023-06-04T13:06:25;27.60;69.30
17632;DHT22;8934;51.194;17.150;2023-06-04T13:09:13;27.80;60.90
17632;DHT22;8934;51.194;17.150;2023-06-04T13:12:01;27.90;63.10
17632;DHT22;8934;51.194;17.150;2023-06-04T13:14:51;28.00;65.50
17632;DHT22;8934;51.194;17.150;2023-06-04T13:17:38;27.90;66.00
17632;DHT22;8934;51.194;17.150;2023-06-04T13:20:26;28.00;67.40
17632;DHT22;8934;51.194;17.150;2023-06-04T13:23:13;28.90;63.70
17632;DHT22;8934;51.194;17.150;2023-06-04T13:26:01;29.50;61.40
17632;DHT22;8934;51.194;17.150;2023-06-04T13:28:48;29.10;60.40
17632;DHT22;8934;51.194;17.150;2023-06-04T13:31:38;28.70;59.80
17632;DHT22;8934;51.194;17.150;2023-06-04T13:34:27;28.30;61.50
17632;DHT22;8934;51.194;17.150;2023-06-04T13:37:14;28.10;58.00
17632;DHT22;8934;51.194;17.150;2023-06-04T13:40:02;28.00;59.40
17632;DHT22;8934;51.194;17.150;2023-06-04T13:42:50;28.00;60.10
17632;DHT22;8934;51.194;17.150;2023-06-04T13:45:38;27.80;59.20
17632;DHT22;8934;51.194;17.150;2023-06-04T13:48:28;27.80;64.80
17632;DHT22;8934;51.194;17.150;2023-06-04T13:51:16;27.70;59.20
17632;DHT22;8934;51.194;17.150;2023-06-04T13:54:03;27.90;64.90
17632;DHT22;8934;51.194;17.150;2023-06-04T13:56:52;28.30;58.60
17632;DHT22;8934;51.194;17.150;2023-06-04T13:59:39;28.50;65.70
17632;DHT22;8934;51.194;17.150;2023-06-04T14:02:27;29.00;63.90
17632;DHT22;8934;51.194;17.150;2023-06-04T14:05:16;29.20;59.80
17632;DHT22;8934;51.194;17.150;2023-06-04T14:08:04;29.30;65.70
17632;DHT22;8934;51.194;17.150;2023-06-04T14:10:52;29.60;59.70
17632;DHT22;8934;51.194;17.150;2023-06-04T14:13:41;29.40;64.00
17632;DHT22;8934;51.194;17.150;2023-06-04T14:16:31;29.30;59.00
17632;DHT22;8934;51.194;17.150;2023-06-04T14:19:20;29.40;63.40
17632;DHT22;8934;51.194;17.150;2023-06-04T14:22:10;29.60;59.00
17632;DHT22;8934;51.194;17.150;2023-06-04T14:24:58;30.10;60.00
17632;DHT22;8934;51.194;17.150;2023-06-04T14:27:47;30.10;56.70
17632;DHT22;8934;51.194;17.150;2023-06-04T14:30:34;30.30;59.80
17632;DHT22;8934;51.194;17.150;2023-06-04T14:33:22;30.50;56.40
17632;DHT22;8934;51.194;17.150;2023-06-04T14:36:09;30.60;56.30
17632;DHT22;8934;51.194;17.150;2023-06-04T14:38:58;30.60;56.40
17632;DHT22;8934;51.194;17.150;2023-06-04T14:41:46;30.60;52.80
17632;DHT22;8934;51.194;17.150;2023-06-04T14:44:33;30.40;51.50
17632;DHT22;8934;51.194;17.150;2023-06-04T14:47:21;30.20;55.70
17632;DHT22;8934;51.194;17.150;2023-06-04T14:50:10;30.20;54.60
17632;DHT22;8934;51.194;17.150;2023-06-04T14:52:57;30.50;54.70
17632;DHT22;8934;51.194;17.150;2023-06-04T14:55:46;30.40;55.70
17632;DHT22;8934;51.194;17.150;2023-06-04T14:58:34;30.50;55.80
17632;DHT22;8934;51.194;17.150;2023-06-04T15:01:22;30.90;51.80
17632;DHT22;8934;51.194;17.150;2023-06-04T15:04:10;31.00;52.90
17632;DHT22;8934;51.194;17.150;2023-06-04T15:06:58;31.40;56.00
17632;DHT22;8934;51.194;17.150;2023-06-04T15:09:45;31.70;54.60
17632;DHT22;8934;51.194;17.150;2023-06-04T15:12:35;32.20;55.70
17632;DHT22;8934;51.194;17.150;2023-06-04T15:15:26;32.60;54.00
17632;DHT22;8934;51.194;17.150;2023-06-04T15:18:13;32.50;53.60
17632;DHT22;8934;51.194;17.150;2023-06-04T15:21:01;32.40;50.40
17632;DHT22;8934;51.194;17.150;2023-06-04T15:23:48;32.50;52.00
17632;DHT22;8934;51.194;17.150;2023-06-04T15:26:36;32.70;54.00
17632;DHT22;8934;51.194;17.150;2023-06-04T15:29:25;32.70;53.10
17632;DHT22;8934;51.194;17.150;2023-06-04T15:32:12;33.10;54.80
17632;DHT22;8934;51.194;17.150;2023-06-04T15:35:01;33.30;53.60
17632;DHT22;8934;51.194;17.150;2023-06-04T15:37:48;33.40;54.70
17632;DHT22;8934;51.194;17.150;2023-06-04T15:40:36;33.00;54.20
17632;DHT22;8934;51.194;17.150;2023-06-04T15:43:24;32.50;56.60
17632;DHT22;8934;51.194;17.150;2023-06-04T15:46:13;32.20;53.40
17632;DHT22;8934;51.194;17.150;2023-06-04T15:49:05;32.00;55.70
17632;DHT22;8934;51.194;17.150;2023-06-04T15:51:53;32.00;58.00
17632;DHT22;8934;51.194;17.150;2023-06-04T15:54:40;32.00;58.40
17632;DHT22;8934;51.194;17.150;2023-06-04T15:57:32;32.30;59.30
17632;DHT22;8934;51.194;17.150;2023-06-04T16:00:20;32.80;51.50
17632;DHT22;8934;51.194;17.150;2023-06-04T16:03:08;32.90;51.80
17632;DHT22;8934;51.194;17.150;2023-06-04T16:05:56;32.90;48.20
17632;DHT22;8934;51.194;17.150;2023-06-04T16:08:43;32.70;50.40
17632;DHT22;8934;51.194;17.150;2023-06-04T16:11:31;32.40;49.80
17632;DHT22;8934;51.194;17.150;2023-06-04T16:14:21;32.40;48.70
17632;DHT22;8934;51.194;17.150;2023-06-04T16:17:09;32.70;53.30
17632;DHT22;8934;51.194;17.150;2023-06-04T16:20:00;33.00;57.00
17632;DHT22;8934;51.194;17.150;2023-06-04T16:22:49;32.80;54.30
17632;DHT22;8934;51.194;17.150;2023-06-04T16:25:37;32.40;56.00
17632;DHT22;8934;51.194;17.150;2023-06-04T16:28:24;32.40;54.30
17632;DHT22;8934;51.194;17.150;2023-06-04T16:31:12;32.40;54.10
17632;DHT22;8934;51.194;17.150;2023-06-04T16:34:00;32.60;57.00
17632;DHT22;8934;51.194;17.150;2023-06-04T16:36:49;32.60;55.00
17632;DHT22;8934;51.194;17.150;2023-06-04T16:39:37;32.50;51.30
17632;DHT22;8934;51.194;17.150;2023-06-04T16:42:24;32.20;53.30
17632;DHT22;8934;51.194;17.150;2023-06-04T16:45:12;32.30;55.50
17632;DHT22;8934;51.194;17.150;2023-06-04T16:47:59;32.20;52.80
17632;DHT22;8934;51.194;17.150;2023-06-04T16:50:48;32.10;53.90
17632;DHT22;8934;51.194;17.150;2023-06-04T16:53:37;32.20;56.80
17632;DHT22;8934;51.194;17.150;2023-06-04T16:56:24;32.10;58.30
17632;DHT22;8934;51.194;17.150;2023-06-04T16:59:12;32.10;55.00
17632;DHT22;8934;51.194;17.150;2023-06-04T17:02:00;32.10;58.30
17632;DHT22;8934;51.194;17.150;2023-06-04T17:04:47;31.90;55.10
17632;DHT22;8934;51.194;17.150;2023-06-04T17:07:35;31.90;56.40
17632;DHT22;8934;51.194;17.150;2023-06-04T17:10:28;31.90;56.20
17632;DHT22;8934;51.194;17.150;2023-06-04T17:13:16;31.70;59.80
17632;DHT22;8934;51.194;17.150;2023-06-04T17:16:04;31.50;58.50
17632;DHT22;8934;51.194;17.150;2023-06-04T17:18:52;31.30;56.30
17632;DHT22;8934;51.194;17.150;2023-06-04T17:21:40;31.10;55.60
17632;DHT22;8934;51.194;17.150;2023-06-04T17:24:28;30.90;58.80
17632;DHT22;8934;51.194;17.150;2023-06-04T17:27:17;30.60;56.50
17632;DHT22;8934;51.194;17.150;2023-06-04T17:30:06;30.40;57.50
17632;DHT22;8934;51.194;17.150;2023-06-04T17:32:54;30.20;60.60
17632;DHT22;8934;51.194;17.150;2023-06-04T17:35:42;30.10;60.40
17632;DHT22;8934;51.194;17.150;2023-06-04T17:38:29;29.90;59.60
17632;DHT22;8934;51.194;17.150;2023-06-04T17:41:17;29.80;58.20
17632;DHT22;8934;51.194;17.150;2023-06-04T17:44:06;29.50;58.70
17632;DHT22;8934;51.194;17.150;2023-06-04T17:46:54;29.20;62.40
17632;DHT22;8934;51.194;17.150;2023-06-04T17:49:42;28.90;63.80
17632;DHT22;8934;51.194;17.150;2023-06-04T17:52:29;28.60;65.50